Chronik & Geschichte

Boeing Stearman am Flugplatz Konstanz

Mit seiner 107-jährigen Geschichte ist Konstanz der älteste Verkehrslandeplatz Deutschlands. Lesen Sie unsere Festschrift zum 100-jährigen Platzjubiläum oder entdecken Sie die ausführliche Flugplatzchronik auf der Website der Initiative PRO Flugplatz Konstanz.

Live am Platz

Die Bilder unserer Webcams werden alle 5 Minuten aktualisiert.

Sonnenaufgang:

05:52 UTC / 07:52 Lokal

Sonnenuntergang:

16:22 UTC / 18:22 Lokal

METAR (22.10.2019 23:50 UTC):

EDNY 222350Z AUTO 04003KT 3700 // FEW016/// 10/09 Q1020
IFR

TAF (22.10.2019 23:00 UTC):

TAF EDNY 222300Z 2300/2324 04003KT 4000 BR BKN020 TEMPO 2300/2309 BKN008 PROB30 TEMPO 2304/2308 2000 BR BKN004 BECMG 2309/2311 9999 TEMPO 2320/2324 1200 BCFG

Alle Angaben unverbindlich und ohne Gewähr. Zeiten genähert.

Für den Verkehrslandeplatz Konstanz werden keine offiziellen Wetterinformationen ausgegeben. Daher werden zur Orientierung Daten des nahegelegenen Flughafens Friedrichshafen dargestellt.

Flugwetterdaten zur Verfügung gestellt von wippich.aero.